sensor_id;sensor_type;location;lat;lon;timestamp;temperature;humidity
67141;DHT22;54058;52.010;5.546;2022-09-09T00:02:01;17.30;78.70
67141;DHT22;54058;52.010;5.546;2022-09-09T00:04:30;17.30;79.20
67141;DHT22;54058;52.010;5.546;2022-09-09T00:12:11;17.30;78.80
67141;DHT22;54058;52.010;5.546;2022-09-09T00:14:56;17.30;78.80
67141;DHT22;54058;52.010;5.546;2022-09-09T00:17:50;17.30;78.90
67141;DHT22;54058;52.010;5.546;2022-09-09T00:20:24;17.30;79.50
67141;DHT22;54058;52.010;5.546;2022-09-09T00:23:17;17.20;79.00
67141;DHT22;54058;52.010;5.546;2022-09-09T00:28:55;17.20;79.30
67141;DHT22;54058;52.010;5.546;2022-09-09T00:31:29;17.20;78.90
67141;DHT22;54058;52.010;5.546;2022-09-09T00:34:03;17.10;79.00
67141;DHT22;54058;52.010;5.546;2022-09-09T00:36:32;17.10;79.20
67141;DHT22;54058;52.010;5.546;2022-09-09T00:39:01;17.10;79.20
67141;DHT22;54058;52.010;5.546;2022-09-09T00:44:33;17.10;79.50
67141;DHT22;54058;52.010;5.546;2022-09-09T00:56:11;17.00;79.40
67141;DHT22;54058;52.010;5.546;2022-09-09T00:58:37;17.00;80.00
67141;DHT22;54058;52.010;5.546;2022-09-09T01:01:09;16.90;79.00
67141;DHT22;54058;52.010;5.546;2022-09-09T01:03:56;16.90;79.20
67141;DHT22;54058;52.010;5.546;2022-09-09T01:06:33;16.90;79.60
67141;DHT22;54058;52.010;5.546;2022-09-09T01:09:07;16.90;79.30
67141;DHT22;54058;52.010;5.546;2022-09-09T01:17:24;16.80;79.40
67141;DHT22;54058;52.010;5.546;2022-09-09T01:20:15;16.80;79.30
67141;DHT22;54058;52.010;5.546;2022-09-09T01:23:10;16.70;79.60
67141;DHT22;54058;52.010;5.546;2022-09-09T01:28:34;16.70;79.70
67141;DHT22;54058;52.010;5.546;2022-09-09T01:31:04;16.70;79.20
67141;DHT22;54058;52.010;5.546;2022-09-09T01:33:31;16.80;79.30
67141;DHT22;54058;52.010;5.546;2022-09-09T01:36:01;16.80;79.20
67141;DHT22;54058;52.010;5.546;2022-09-09T01:38:31;16.70;79.50
67141;DHT22;54058;52.010;5.546;2022-09-09T01:40:58;16.70;79.20
67141;DHT22;54058;52.010;5.546;2022-09-09T01:43:25;16.70;79.30
67141;DHT22;54058;52.010;5.546;2022-09-09T01:45:52;16.70;79.40
67141;DHT22;54058;52.010;5.546;2022-09-09T01:48:24;16.70;80.50
67141;DHT22;54058;52.010;5.546;2022-09-09T01:50:50;16.70;79.30
67141;DHT22;54058;52.010;5.546;2022-09-09T01:53:17;16.60;79.30
67141;DHT22;54058;52.010;5.546;2022-09-09T01:55:56;16.60;79.30
67141;DHT22;54058;52.010;5.546;2022-09-09T01:58:46;16.60;79.50
67141;DHT22;54058;52.010;5.546;2022-09-09T02:01:25;16.60;79.60
67141;DHT22;54058;52.010;5.546;2022-09-09T02:04:00;16.60;79.60
67141;DHT22;54058;52.010;5.546;2022-09-09T02:06:38;16.60;79.60
67141;DHT22;54058;52.010;5.546;2022-09-09T02:09:07;16.60;79.80
67141;DHT22;54058;52.010;5.546;2022-09-09T02:11:35;16.60;79.70
67141;DHT22;54058;52.010;5.546;2022-09-09T02:14:10;16.50;79.60
67141;DHT22;54058;52.010;5.546;2022-09-09T02:17:06;16.50;79.80
67141;DHT22;54058;52.010;5.546;2022-09-09T02:19:32;16.50;80.40
67141;DHT22;54058;52.010;5.546;2022-09-09T02:22:00;16.50;79.80
67141;DHT22;54058;52.010;5.546;2022-09-09T02:24:28;16.50;79.80
67141;DHT22;54058;52.010;5.546;2022-09-09T02:26:56;16.50;79.80
67141;DHT22;54058;52.010;5.546;2022-09-09T02:29:42;16.50;79.90
67141;DHT22;54058;52.010;5.546;2022-09-09T02:32:13;16.50;80.00
67141;DHT22;54058;52.010;5.546;2022-09-09T02:34:45;16.50;80.00
67141;DHT22;54058;52.010;5.546;2022-09-09T02:37:13;16.50;80.00
67141;DHT22;54058;52.010;5.546;2022-09-09T02:39:40;16.40;80.00
67141;DHT22;54058;52.010;5.546;2022-09-09T02:42:07;16.40;80.00
67141;DHT22;54058;52.010;5.546;2022-09-09T02:44:33;16.40;80.10
67141;DHT22;54058;52.010;5.546;2022-09-09T02:47:25;16.40;80.10
67141;DHT22;54058;52.010;5.546;2022-09-09T02:49:59;16.40;80.50
67141;DHT22;54058;52.010;5.546;2022-09-09T02:55:39;16.40;80.80
67141;DHT22;54058;52.010;5.546;2022-09-09T02:58:09;16.30;80.20
67141;DHT22;54058;52.010;5.546;2022-09-09T03:00:38;16.30;80.20
67141;DHT22;54058;52.010;5.546;2022-09-09T03:03:06;16.30;80.20
67141;DHT22;54058;52.010;5.546;2022-09-09T03:05:32;16.30;80.30
67141;DHT22;54058;52.010;5.546;2022-09-09T03:07:58;16.30;80.20
67141;DHT22;54058;52.010;5.546;2022-09-09T03:10:24;16.30;80.30
67141;DHT22;54058;52.010;5.546;2022-09-09T03:12:50;16.30;80.40
67141;DHT22;54058;52.010;5.546;2022-09-09T03:15:16;16.30;80.40
67141;DHT22;54058;52.010;5.546;2022-09-09T03:17:42;16.20;80.40
67141;DHT22;54058;52.010;5.546;2022-09-09T03:20:08;16.20;80.40
67141;DHT22;54058;52.010;5.546;2022-09-09T03:22:34;16.30;80.50
67141;DHT22;54058;52.010;5.546;2022-09-09T03:25:00;16.20;80.50
67141;DHT22;54058;52.010;5.546;2022-09-09T03:27:26;16.30;80.40
67141;DHT22;54058;52.010;5.546;2022-09-09T03:29:51;16.20;80.40
67141;DHT22;54058;52.010;5.546;2022-09-09T03:32:18;16.20;80.50
67141;DHT22;54058;52.010;5.546;2022-09-09T03:34:44;16.20;80.70
67141;DHT22;54058;52.010;5.546;2022-09-09T03:37:09;16.20;80.70
67141;DHT22;54058;52.010;5.546;2022-09-09T03:39:35;16.20;80.70
67141;DHT22;54058;52.010;5.546;2022-09-09T03:42:01;16.20;80.80
67141;DHT22;54058;52.010;5.546;2022-09-09T03:44:30;16.20;80.80
67141;DHT22;54058;52.010;5.546;2022-09-09T03:46:56;16.20;80.90
67141;DHT22;54058;52.010;5.546;2022-09-09T03:49:21;16.30;80.90
67141;DHT22;54058;52.010;5.546;2022-09-09T03:51:48;16.30;80.90
67141;DHT22;54058;52.010;5.546;2022-09-09T03:54:13;16.30;80.90
67141;DHT22;54058;52.010;5.546;2022-09-09T03:56:39;16.30;80.90
67141;DHT22;54058;52.010;5.546;2022-09-09T03:59:06;16.30;80.90
67141;DHT22;54058;52.010;5.546;2022-09-09T04:01:34;16.30;81.40
67141;DHT22;54058;52.010;5.546;2022-09-09T04:04:00;16.30;81.50
67141;DHT22;54058;52.010;5.546;2022-09-09T04:06:27;16.30;80.80
67141;DHT22;54058;52.010;5.546;2022-09-09T04:08:53;16.30;80.80
67141;DHT22;54058;52.010;5.546;2022-09-09T04:11:20;16.30;80.80
67141;DHT22;54058;52.010;5.546;2022-09-09T04:13:46;16.30;80.70
67141;DHT22;54058;52.010;5.546;2022-09-09T04:16:15;16.30;80.70
67141;DHT22;54058;52.010;5.546;2022-09-09T04:18:41;16.30;80.80
67141;DHT22;54058;52.010;5.546;2022-09-09T04:21:08;16.30;80.80
67141;DHT22;54058;52.010;5.546;2022-09-09T04:23:34;16.20;80.70
67141;DHT22;54058;52.010;5.546;2022-09-09T04:26:01;16.20;80.70
67141;DHT22;54058;52.010;5.546;2022-09-09T04:28:31;16.30;80.80
67141;DHT22;54058;52.010;5.546;2022-09-09T04:30:58;16.30;80.90
67141;DHT22;54058;52.010;5.546;2022-09-09T04:33:28;16.30;80.80
67141;DHT22;54058;52.010;5.546;2022-09-09T04:35:55;16.30;80.90
67141;DHT22;54058;52.010;5.546;2022-09-09T04:38:20;16.30;81.00
67141;DHT22;54058;52.010;5.546;2022-09-09T04:40:49;16.20;81.00
67141;DHT22;54058;52.010;5.546;2022-09-09T04:43:15;16.20;81.10
67141;DHT22;54058;52.010;5.546;2022-09-09T04:45:42;16.30;81.20
67141;DHT22;54058;52.010;5.546;2022-09-09T04:48:08;16.30;81.30
67141;DHT22;54058;52.010;5.546;2022-09-09T04:50:35;16.30;81.30
67141;DHT22;54058;52.010;5.546;2022-09-09T04:53:04;16.30;81.30
67141;DHT22;54058;52.010;5.546;2022-09-09T04:55:31;16.30;81.30
67141;DHT22;54058;52.010;5.546;2022-09-09T04:57:57;16.30;81.30
67141;DHT22;54058;52.010;5.546;2022-09-09T05:00:25;16.40;81.30
67141;DHT22;54058;52.010;5.546;2022-09-09T05:02:51;16.30;81.20
67141;DHT22;54058;52.010;5.546;2022-09-09T05:05:17;16.30;81.20
67141;DHT22;54058;52.010;5.546;2022-09-09T05:07:43;16.30;81.20
67141;DHT22;54058;52.010;5.546;2022-09-09T05:10:09;16.30;81.30
67141;DHT22;54058;52.010;5.546;2022-09-09T05:12:35;16.30;81.40
67141;DHT22;54058;52.010;5.546;2022-09-09T05:15:00;16.30;81.50
67141;DHT22;54058;52.010;5.546;2022-09-09T05:17:26;16.30;81.50
67141;DHT22;54058;52.010;5.546;2022-09-09T05:19:53;16.30;81.50
67141;DHT22;54058;52.010;5.546;2022-09-09T05:22:21;16.30;81.40
67141;DHT22;54058;52.010;5.546;2022-09-09T05:24:49;16.30;81.50
67141;DHT22;54058;52.010;5.546;2022-09-09T05:27:19;16.30;81.50
67141;DHT22;54058;52.010;5.546;2022-09-09T05:29:45;16.30;81.40
67141;DHT22;54058;52.010;5.546;2022-09-09T05:32:11;16.30;81.50
67141;DHT22;54058;52.010;5.546;2022-09-09T05:34:39;16.30;81.50
67141;DHT22;54058;52.010;5.546;2022-09-09T05:37:04;16.30;81.50
67141;DHT22;54058;52.010;5.546;2022-09-09T05:39:30;16.40;81.40
67141;DHT22;54058;52.010;5.546;2022-09-09T05:41:55;16.30;81.40
67141;DHT22;54058;52.010;5.546;2022-09-09T05:44:21;16.40;81.50
67141;DHT22;54058;52.010;5.546;2022-09-09T05:46:49;16.40;81.40
67141;DHT22;54058;52.010;5.546;2022-09-09T05:49:15;16.40;81.40
67141;DHT22;54058;52.010;5.546;2022-09-09T05:51:41;16.40;81.40
67141;DHT22;54058;52.010;5.546;2022-09-09T05:54:08;16.40;81.50
67141;DHT22;54058;52.010;5.546;2022-09-09T05:56:34;16.50;82.40
67141;DHT22;54058;52.010;5.546;2022-09-09T05:58:59;16.50;81.40
67141;DHT22;54058;52.010;5.546;2022-09-09T06:01:29;16.50;81.40
67141;DHT22;54058;52.010;5.546;2022-09-09T06:03:55;16.60;81.40
67141;DHT22;54058;52.010;5.546;2022-09-09T06:06:24;16.60;81.40
67141;DHT22;54058;52.010;5.546;2022-09-09T06:08:52;16.60;81.40
67141;DHT22;54058;52.010;5.546;2022-09-09T06:11:20;16.60;81.40
67141;DHT22;54058;52.010;5.546;2022-09-09T06:13:47;16.70;81.60
67141;DHT22;54058;52.010;5.546;2022-09-09T06:16:17;16.70;81.70
67141;DHT22;54058;52.010;5.546;2022-09-09T06:18:43;16.70;81.70
67141;DHT22;54058;52.010;5.546;2022-09-09T06:21:20;16.90;81.80
67141;DHT22;54058;52.010;5.546;2022-09-09T06:23:47;16.90;81.80
67141;DHT22;54058;52.010;5.546;2022-09-09T06:26:14;17.00;81.80
67141;DHT22;54058;52.010;5.546;2022-09-09T06:28:40;17.00;81.70
67141;DHT22;54058;52.010;5.546;2022-09-09T06:31:10;17.00;81.90
67141;DHT22;54058;52.010;5.546;2022-09-09T06:33:38;17.00;81.80
67141;DHT22;54058;52.010;5.546;2022-09-09T06:36:33;17.10;81.90
67141;DHT22;54058;52.010;5.546;2022-09-09T06:38:59;17.10;82.00
67141;DHT22;54058;52.010;5.546;2022-09-09T06:41:28;17.20;81.70
67141;DHT22;54058;52.010;5.546;2022-09-09T06:43:54;17.30;81.60
67141;DHT22;54058;52.010;5.546;2022-09-09T06:46:28;17.30;81.50
67141;DHT22;54058;52.010;5.546;2022-09-09T06:48:56;17.30;81.60
67141;DHT22;54058;52.010;5.546;2022-09-09T06:51:23;17.30;81.70
67141;DHT22;54058;52.010;5.546;2022-09-09T06:53:54;17.40;81.90
67141;DHT22;54058;52.010;5.546;2022-09-09T06:58:49;17.60;82.30
67141;DHT22;54058;52.010;5.546;2022-09-09T07:01:16;17.70;82.00
67141;DHT22;54058;52.010;5.546;2022-09-09T07:03:46;17.70;81.90
67141;DHT22;54058;52.010;5.546;2022-09-09T07:06:15;17.70;81.90
67141;DHT22;54058;52.010;5.546;2022-09-09T07:08:42;17.90;82.60
67141;DHT22;54058;52.010;5.546;2022-09-09T07:11:09;18.00;81.90
67141;DHT22;54058;52.010;5.546;2022-09-09T07:13:35;18.00;81.80
67141;DHT22;54058;52.010;5.546;2022-09-09T07:16:09;18.10;81.80
67141;DHT22;54058;52.010;5.546;2022-09-09T07:18:35;18.20;81.70
67141;DHT22;54058;52.010;5.546;2022-09-09T07:21:02;18.30;81.70
67141;DHT22;54058;52.010;5.546;2022-09-09T07:23:28;18.40;81.70
67141;DHT22;54058;52.010;5.546;2022-09-09T07:25:54;18.50;81.60
67141;DHT22;54058;52.010;5.546;2022-09-09T07:28:20;18.60;81.60
67141;DHT22;54058;52.010;5.546;2022-09-09T07:31:00;18.70;81.60
67141;DHT22;54058;52.010;5.546;2022-09-09T07:33:31;18.70;81.30
67141;DHT22;54058;52.010;5.546;2022-09-09T07:36:19;18.80;81.50
67141;DHT22;54058;52.010;5.546;2022-09-09T07:38:56;18.80;81.20
67141;DHT22;54058;52.010;5.546;2022-09-09T07:41:25;18.80;81.40
67141;DHT22;54058;52.010;5.546;2022-09-09T07:43:52;18.90;81.20
67141;DHT22;54058;52.010;5.546;2022-09-09T07:46:21;19.00;81.00
67141;DHT22;54058;52.010;5.546;2022-09-09T07:48:52;19.20;80.80
67141;DHT22;54058;52.010;5.546;2022-09-09T07:51:21;19.20;80.50
67141;DHT22;54058;52.010;5.546;2022-09-09T07:53:48;19.10;80.70
67141;DHT22;54058;52.010;5.546;2022-09-09T07:56:17;19.10;80.80
67141;DHT22;54058;52.010;5.546;2022-09-09T07:58:46;19.00;80.90
67141;DHT22;54058;52.010;5.546;2022-09-09T08:01:16;19.00;81.00
67141;DHT22;54058;52.010;5.546;2022-09-09T08:03:43;18.90;81.10
67141;DHT22;54058;52.010;5.546;2022-09-09T08:06:10;19.00;81.00
67141;DHT22;54058;52.010;5.546;2022-09-09T08:08:41;18.90;81.00
67141;DHT22;54058;52.010;5.546;2022-09-09T08:11:13;18.90;80.90
67141;DHT22;54058;52.010;5.546;2022-09-09T08:13:41;18.90;80.90
67141;DHT22;54058;52.010;5.546;2022-09-09T08:16:12;18.80;80.90
67141;DHT22;54058;52.010;5.546;2022-09-09T08:18:38;18.80;81.50
67141;DHT22;54058;52.010;5.546;2022-09-09T08:21:14;18.90;81.00
67141;DHT22;54058;52.010;5.546;2022-09-09T08:23:41;19.00;80.90
67141;DHT22;54058;52.010;5.546;2022-09-09T08:26:11;19.10;80.90
67141;DHT22;54058;52.010;5.546;2022-09-09T08:28:37;19.10;80.80
67141;DHT22;54058;52.010;5.546;2022-09-09T08:31:15;19.20;81.20
67141;DHT22;54058;52.010;5.546;2022-09-09T08:33:42;19.20;80.40
67141;DHT22;54058;52.010;5.546;2022-09-09T08:36:10;19.10;78.40
67141;DHT22;54058;52.010;5.546;2022-09-09T08:38:37;19.00;80.50
67141;DHT22;54058;52.010;5.546;2022-09-09T08:47:05;19.00;79.90
67141;DHT22;54058;52.010;5.546;2022-09-09T08:52:22;19.10;79.60
67141;DHT22;54058;52.010;5.546;2022-09-09T08:54:49;19.20;80.00
67141;DHT22;54058;52.010;5.546;2022-09-09T08:57:21;19.20;80.10
67141;DHT22;54058;52.010;5.546;2022-09-09T08:59:52;19.20;79.80
67141;DHT22;54058;52.010;5.546;2022-09-09T09:05:19;19.30;79.70
67141;DHT22;54058;52.010;5.546;2022-09-09T09:07:59;19.30;79.00
67141;DHT22;54058;52.010;5.546;2022-09-09T09:10:49;19.30;79.30
67141;DHT22;54058;52.010;5.546;2022-09-09T09:13:54;19.20;79.20
67141;DHT22;54058;52.010;5.546;2022-09-09T09:16:33;19.20;78.50
67141;DHT22;54058;52.010;5.546;2022-09-09T09:19:00;19.20;79.30
67141;DHT22;54058;52.010;5.546;2022-09-09T09:21:41;19.20;79.50
67141;DHT22;54058;52.010;5.546;2022-09-09T09:24:20;19.20;79.20
67141;DHT22;54058;52.010;5.546;2022-09-09T09:26:47;19.20;79.10
67141;DHT22;54058;52.010;5.546;2022-09-09T09:29:15;19.20;79.30
67141;DHT22;54058;52.010;5.546;2022-09-09T09:32:02;19.10;79.20
67141;DHT22;54058;52.010;5.546;2022-09-09T09:34:28;19.10;79.20
67141;DHT22;54058;52.010;5.546;2022-09-09T09:36:56;19.10;79.00
67141;DHT22;54058;52.010;5.546;2022-09-09T09:39:25;19.10;79.10
67141;DHT22;54058;52.010;5.546;2022-09-09T09:41:51;19.10;79.00
67141;DHT22;54058;52.010;5.546;2022-09-09T09:44:30;19.10;78.90
67141;DHT22;54058;52.010;5.546;2022-09-09T09:47:28;19.20;78.90
67141;DHT22;54058;52.010;5.546;2022-09-09T09:49:56;19.20;78.00
67141;DHT22;54058;52.010;5.546;2022-09-09T09:52:26;19.20;79.00
67141;DHT22;54058;52.010;5.546;2022-09-09T09:54:53;19.30;78.90
67141;DHT22;54058;52.010;5.546;2022-09-09T09:57:24;19.30;79.20
67141;DHT22;54058;52.010;5.546;2022-09-09T10:00:12;19.40;78.40
67141;DHT22;54058;52.010;5.546;2022-09-09T10:02:40;19.30;78.10
67141;DHT22;54058;52.010;5.546;2022-09-09T10:05:19;19.30;78.40
67141;DHT22;54058;52.010;5.546;2022-09-09T10:07:46;19.40;78.20
67141;DHT22;54058;52.010;5.546;2022-09-09T10:10:18;19.30;78.30
67141;DHT22;54058;52.010;5.546;2022-09-09T10:18:22;19.10;77.70
67141;DHT22;54058;52.010;5.546;2022-09-09T10:26:47;19.10;77.50
67141;DHT22;54058;52.010;5.546;2022-09-09T10:29:53;19.20;78.00
67141;DHT22;54058;52.010;5.546;2022-09-09T10:32:37;19.20;77.50
67141;DHT22;54058;52.010;5.546;2022-09-09T10:35:14;19.20;76.70
67141;DHT22;54058;52.010;5.546;2022-09-09T10:43:11;18.80;79.20
67141;DHT22;54058;52.010;5.546;2022-09-09T10:45:58;18.70;79.40
67141;DHT22;54058;52.010;5.546;2022-09-09T10:48:35;18.70;79.60
67141;DHT22;54058;52.010;5.546;2022-09-09T10:56:31;18.90;79.60
67141;DHT22;54058;52.010;5.546;2022-09-09T10:59:09;18.90;79.80
67141;DHT22;54058;52.010;5.546;2022-09-09T11:01:53;19.00;79.90
67141;DHT22;54058;52.010;5.546;2022-09-09T11:04:27;19.10;80.10
67141;DHT22;54058;52.010;5.546;2022-09-09T11:07:00;19.20;80.30
67141;DHT22;54058;52.010;5.546;2022-09-09T11:09:35;19.30;80.40
67141;DHT22;54058;52.010;5.546;2022-09-09T11:12:02;19.50;80.30
67141;DHT22;54058;52.010;5.546;2022-09-09T11:14:41;19.60;80.10
67141;DHT22;54058;52.010;5.546;2022-09-09T11:17:15;19.60;80.00
67141;DHT22;54058;52.010;5.546;2022-09-09T11:19:43;19.60;79.70
67141;DHT22;54058;52.010;5.546;2022-09-09T11:22:43;19.50;79.80
67141;DHT22;54058;52.010;5.546;2022-09-09T11:25:18;19.50;79.70
67141;DHT22;54058;52.010;5.546;2022-09-09T11:33:54;19.70;80.40
67141;DHT22;54058;52.010;5.546;2022-09-09T11:41:37;20.40;79.60
67141;DHT22;54058;52.010;5.546;2022-09-09T11:44:17;20.50;79.60
67141;DHT22;54058;52.010;5.546;2022-09-09T11:46:49;20.40;79.20
67141;DHT22;54058;52.010;5.546;2022-09-09T11:49:28;20.30;79.50
67141;DHT22;54058;52.010;5.546;2022-09-09T11:51:54;20.30;79.30
67141;DHT22;54058;52.010;5.546;2022-09-09T11:54:33;20.10;79.70
67141;DHT22;54058;52.010;5.546;2022-09-09T11:57:33;20.10;79.40
67141;DHT22;54058;52.010;5.546;2022-09-09T12:00:00;20.10;79.10
67141;DHT22;54058;52.010;5.546;2022-09-09T12:02:28;20.10;79.70
67141;DHT22;54058;52.010;5.546;2022-09-09T12:07:37;20.00;79.70
67141;DHT22;54058;52.010;5.546;2022-09-09T12:10:05;20.00;79.70
67141;DHT22;54058;52.010;5.546;2022-09-09T12:12:44;20.00;79.90
67141;DHT22;54058;52.010;5.546;2022-09-09T12:17:49;19.90;80.00
67141;DHT22;54058;52.010;5.546;2022-09-09T12:20:42;19.90;79.50
67141;DHT22;54058;52.010;5.546;2022-09-09T12:23:13;19.80;80.00
67141;DHT22;54058;52.010;5.546;2022-09-09T12:29:00;19.70;79.30
67141;DHT22;54058;52.010;5.546;2022-09-09T12:32:13;19.60;79.40
67141;DHT22;54058;52.010;5.546;2022-09-09T12:39:58;19.60;80.00
67141;DHT22;54058;52.010;5.546;2022-09-09T12:42:25;19.60;80.00
67141;DHT22;54058;52.010;5.546;2022-09-09T12:45:01;19.60;80.00
67141;DHT22;54058;52.010;5.546;2022-09-09T12:47:51;19.50;79.20
67141;DHT22;54058;52.010;5.546;2022-09-09T12:50:21;19.60;79.50
67141;DHT22;54058;52.010;5.546;2022-09-09T12:52:50;19.60;79.80
67141;DHT22;54058;52.010;5.546;2022-09-09T12:55:19;19.80;79.70
67141;DHT22;54058;52.010;5.546;2022-09-09T12:57:48;19.70;79.90
67141;DHT22;54058;52.010;5.546;2022-09-09T13:00:26;19.70;79.40
67141;DHT22;54058;52.010;5.546;2022-09-09T13:02:57;19.60;79.40
67141;DHT22;54058;52.010;5.546;2022-09-09T13:05:26;19.60;79.40
67141;DHT22;54058;52.010;5.546;2022-09-09T13:08:04;19.60;79.40
67141;DHT22;54058;52.010;5.546;2022-09-09T13:10:36;19.70;79.10
67141;DHT22;54058;52.010;5.546;2022-09-09T13:13:15;19.60;79.00
67141;DHT22;54058;52.010;5.546;2022-09-09T13:15:53;19.60;79.00
67141;DHT22;54058;52.010;5.546;2022-09-09T13:18:22;19.60;79.00
67141;DHT22;54058;52.010;5.546;2022-09-09T13:20:49;19.70;79.00
67141;DHT22;54058;52.010;5.546;2022-09-09T13:23:16;19.70;79.00
67141;DHT22;54058;52.010;5.546;2022-09-09T13:25:57;19.80;79.00
67141;DHT22;54058;52.010;5.546;2022-09-09T13:28:25;19.80;78.70
67141;DHT22;54058;52.010;5.546;2022-09-09T13:31:01;19.90;78.90
67141;DHT22;54058;52.010;5.546;2022-09-09T13:33:35;20.00;78.60
67141;DHT22;54058;52.010;5.546;2022-09-09T13:36:07;20.00;78.60
67141;DHT22;54058;52.010;5.546;2022-09-09T13:42:05;20.10;78.40
67141;DHT22;54058;52.010;5.546;2022-09-09T13:44:05;20.20;78.20
67141;DHT22;54058;52.010;5.546;2022-09-09T13:46:35;20.20;78.10
67141;DHT22;54058;52.010;5.546;2022-09-09T13:49:19;20.20;78.20
67141;DHT22;54058;52.010;5.546;2022-09-09T13:51:47;20.20;77.90
67141;DHT22;54058;52.010;5.546;2022-09-09T13:54:15;20.20;78.20
67141;DHT22;54058;52.010;5.546;2022-09-09T13:56:42;20.30;78.20
67141;DHT22;54058;52.010;5.546;2022-09-09T13:59:17;20.30;78.20
67141;DHT22;54058;52.010;5.546;2022-09-09T14:01:45;20.30;77.90
67141;DHT22;54058;52.010;5.546;2022-09-09T14:04:11;20.40;78.10
67141;DHT22;54058;52.010;5.546;2022-09-09T14:06:41;20.40;77.80
67141;DHT22;54058;52.010;5.546;2022-09-09T14:09:10;20.40;77.80
67141;DHT22;54058;52.010;5.546;2022-09-09T14:11:36;20.40;78.30
67141;DHT22;54058;52.010;5.546;2022-09-09T14:14:01;20.40;77.60
67141;DHT22;54058;52.010;5.546;2022-09-09T14:16:27;20.40;77.70
67141;DHT22;54058;52.010;5.546;2022-09-09T14:18:53;20.50;77.80
67141;DHT22;54058;52.010;5.546;2022-09-09T14:21:21;20.60;77.80
67141;DHT22;54058;52.010;5.546;2022-09-09T14:23:47;20.70;77.50
67141;DHT22;54058;52.010;5.546;2022-09-09T14:26:13;20.70;78.10
67141;DHT22;54058;52.010;5.546;2022-09-09T14:28:39;20.80;76.30
67141;DHT22;54058;52.010;5.546;2022-09-09T14:31:06;20.80;77.60
67141;DHT22;54058;52.010;5.546;2022-09-09T14:33:32;21.00;77.30
67141;DHT22;54058;52.010;5.546;2022-09-09T14:35:59;21.00;75.90
67141;DHT22;54058;52.010;5.546;2022-09-09T14:38:28;21.10;77.40
67141;DHT22;54058;52.010;5.546;2022-09-09T14:40:54;21.10;77.10
67141;DHT22;54058;52.010;5.546;2022-09-09T14:43:19;21.20;77.10
67141;DHT22;54058;52.010;5.546;2022-09-09T14:45:46;21.20;77.00
67141;DHT22;54058;52.010;5.546;2022-09-09T14:48:14;21.20;77.50
67141;DHT22;54058;52.010;5.546;2022-09-09T14:50:40;21.20;76.90
67141;DHT22;54058;52.010;5.546;2022-09-09T14:53:07;21.20;76.80
67141;DHT22;54058;52.010;5.546;2022-09-09T14:55:34;21.30;77.00
67141;DHT22;54058;52.010;5.546;2022-09-09T14:57:59;21.40;76.80
67141;DHT22;54058;52.010;5.546;2022-09-09T15:00:25;21.50;76.60
67141;DHT22;54058;52.010;5.546;2022-09-09T15:02:54;21.50;76.50
67141;DHT22;54058;52.010;5.546;2022-09-09T15:05:20;21.50;76.20
67141;DHT22;54058;52.010;5.546;2022-09-09T15:07:46;21.50;76.30
67141;DHT22;54058;52.010;5.546;2022-09-09T15:10:13;21.50;76.30
67141;DHT22;54058;52.010;5.546;2022-09-09T15:12:39;21.50;76.00
67141;DHT22;54058;52.010;5.546;2022-09-09T15:15:05;21.50;75.70
67141;DHT22;54058;52.010;5.546;2022-09-09T15:17:31;21.30;75.70
67141;DHT22;54058;52.010;5.546;2022-09-09T15:19:57;21.30;75.80
67141;DHT22;54058;52.010;5.546;2022-09-09T15:22:23;21.20;75.90
67141;DHT22;54058;52.010;5.546;2022-09-09T15:24:49;21.10;75.80
67141;DHT22;54058;52.010;5.546;2022-09-09T15:27:15;21.00;75.80
67141;DHT22;54058;52.010;5.546;2022-09-09T15:29:41;20.90;75.70
67141;DHT22;54058;52.010;5.546;2022-09-09T15:32:07;20.90;75.80
67141;DHT22;54058;52.010;5.546;2022-09-09T15:34:33;20.80;75.70
67141;DHT22;54058;52.010;5.546;2022-09-09T15:36:58;20.80;76.00
67141;DHT22;54058;52.010;5.546;2022-09-09T15:39:25;20.80;76.10
67141;DHT22;54058;52.010;5.546;2022-09-09T15:41:51;20.80;76.20
67141;DHT22;54058;52.010;5.546;2022-09-09T15:44:18;20.90;76.10
67141;DHT22;54058;52.010;5.546;2022-09-09T15:46:52;20.90;76.10
67141;DHT22;54058;52.010;5.546;2022-09-09T15:49:25;21.00;75.80
67141;DHT22;54058;52.010;5.546;2022-09-09T15:51:56;21.10;75.50
67141;DHT22;54058;52.010;5.546;2022-09-09T15:54:24;21.10;75.40
67141;DHT22;54058;52.010;5.546;2022-09-09T15:56:52;21.10;75.60
67141;DHT22;54058;52.010;5.546;2022-09-09T15:59:20;21.10;75.50
67141;DHT22;54058;52.010;5.546;2022-09-09T16:01:45;21.00;75.20
67141;DHT22;54058;52.010;5.546;2022-09-09T16:04:11;21.00;75.10
67141;DHT22;54058;52.010;5.546;2022-09-09T16:06:37;20.90;74.70
67141;DHT22;54058;52.010;5.546;2022-09-09T16:09:04;20.70;74.60
67141;DHT22;54058;52.010;5.546;2022-09-09T16:11:32;20.60;74.40
67141;DHT22;54058;52.010;5.546;2022-09-09T16:13:59;20.50;74.40
67141;DHT22;54058;52.010;5.546;2022-09-09T16:16:27;20.40;74.50
67141;DHT22;54058;52.010;5.546;2022-09-09T16:18:55;20.30;74.50
67141;DHT22;54058;52.010;5.546;2022-09-09T16:21:24;20.30;74.70
67141;DHT22;54058;52.010;5.546;2022-09-09T16:23:51;20.20;74.60
67141;DHT22;54058;52.010;5.546;2022-09-09T16:26:18;20.20;74.70
67141;DHT22;54058;52.010;5.546;2022-09-09T16:28:45;20.20;74.70
67141;DHT22;54058;52.010;5.546;2022-09-09T16:31:17;20.20;74.60
67141;DHT22;54058;52.010;5.546;2022-09-09T16:33:43;20.20;74.70
67141;DHT22;54058;52.010;5.546;2022-09-09T16:36:14;20.10;74.80
67141;DHT22;54058;52.010;5.546;2022-09-09T16:38:41;20.10;75.00
67141;DHT22;54058;52.010;5.546;2022-09-09T16:41:09;20.00;75.00
67141;DHT22;54058;52.010;5.546;2022-09-09T16:43:35;20.10;75.00
67141;DHT22;54058;52.010;5.546;2022-09-09T16:46:23;20.10;75.10
67141;DHT22;54058;52.010;5.546;2022-09-09T16:48:50;20.10;75.10
67141;DHT22;54058;52.010;5.546;2022-09-09T16:51:21;20.10;74.90
67141;DHT22;54058;52.010;5.546;2022-09-09T16:53:48;20.10;74.90
67141;DHT22;54058;52.010;5.546;2022-09-09T16:56:16;20.10;74.90
67141;DHT22;54058;52.010;5.546;2022-09-09T16:58:43;20.20;74.90
67141;DHT22;54058;52.010;5.546;2022-09-09T17:01:10;20.20;75.00
67141;DHT22;54058;52.010;5.546;2022-09-09T17:03:39;20.10;75.00
67141;DHT22;54058;52.010;5.546;2022-09-09T17:06:12;20.10;75.10
67141;DHT22;54058;52.010;5.546;2022-09-09T17:08:39;20.10;75.00
67141;DHT22;54058;52.010;5.546;2022-09-09T17:11:18;20.10;75.00
67141;DHT22;54058;52.010;5.546;2022-09-09T17:13:45;20.10;74.80
67141;DHT22;54058;52.010;5.546;2022-09-09T17:16:14;20.00;74.90
67141;DHT22;54058;52.010;5.546;2022-09-09T17:18:40;20.00;74.90
67141;DHT22;54058;52.010;5.546;2022-09-09T17:21:13;20.00;75.00
67141;DHT22;54058;52.010;5.546;2022-09-09T17:23:40;19.90;75.00
67141;DHT22;54058;52.010;5.546;2022-09-09T17:26:09;19.80;75.00
67141;DHT22;54058;52.010;5.546;2022-09-09T17:28:39;19.80;75.10